Time;durP1;ratioP1;P1;durP2;ratioP2;P2;SDS_P1;SDS_P2;PMS_P1;PMS_P2;Temp;Humidity;BMP_temperature;BMP_pressure;BME280_temperature;BME280_humidity;BME280_pressure;Samples;Min_cycle;Max_cycle;Signal;HPM_P1;HPM_P2
2023/04/03 00:00:06;;;;;;;1.97;1.40;;;8.00;99.90;;;;;;7388189;19;20177;-75
2023/04/03 00:02:32;;;;;;;2.00;1.50;;;8.00;99.90;;;;;;7385633;19;20138;-74
2023/04/03 00:04:58;;;;;;;1.83;1.40;;;7.70;99.90;;;;;;7387737;19;20535;-74
2023/04/03 00:07:24;;;;;;;1.87;1.77;;;7.90;99.90;;;;;;7385961;19;20247;-74
2023/04/03 00:09:49;;;;;;;3.07;2.33;;;8.00;99.90;;;;;;7388489;19;20156;-75
2023/04/03 00:12:15;;;;;;;1.83;1.43;;;7.80;99.90;;;;;;7386275;19;20264;-74
2023/04/03 00:14:41;;;;;;;3.60;1.57;;;8.00;99.90;;;;;;7388052;19;20186;-74
2023/04/03 00:17:07;;;;;;;3.47;2.10;;;7.90;99.90;;;;;;7386340;19;20141;-74
2023/04/03 00:19:33;;;;;;;1.93;1.60;;;7.80;99.90;;;;;;7389082;19;20142;-74
2023/04/03 00:21:59;;;;;;;3.13;1.53;;;7.80;99.90;;;;;;7387551;19;20139;-74
2023/04/03 00:24:24;;;;;;;3.13;1.87;;;7.80;99.90;;;;;;7387744;19;20150;-74
2023/04/03 00:26:50;;;;;;;2.07;1.57;;;7.90;99.90;;;;;;7385752;19;20610;-74
2023/04/03 00:29:16;;;;;;;3.67;1.90;;;8.00;99.90;;;;;;7387510;19;20501;-74
2023/04/03 00:31:42;;;;;;;5.33;2.37;;;7.90;99.90;;;;;;7386255;19;20127;-73
2023/04/03 00:34:07;;;;;;;3.43;1.70;;;7.90;99.90;;;;;;7385061;19;20139;-74
2023/04/03 00:36:33;;;;;;;2.50;1.70;;;7.90;99.90;;;;;;7375946;19;20146;-74
2023/04/03 00:38:59;;;;;;;4.20;1.80;;;7.90;99.90;;;;;;7387242;19;20162;-75
2023/04/03 00:41:25;;;;;;;2.37;1.83;;;7.90;99.90;;;;;;7385274;19;20173;-75
2023/04/03 00:43:51;;;;;;;2.10;1.63;;;7.90;99.90;;;;;;7386639;19;20154;-75
2023/04/03 00:46:16;;;;;;;2.27;1.73;;;7.90;99.90;;;;;;7387967;19;20134;-75
2023/04/03 00:48:45;;;;;;;2.30;1.77;;;7.90;99.90;;;;;;7387632;19;20189;-75
2023/04/03 00:51:26;;;;;;;3.13;1.53;;;8.00;99.90;;;;;;7384602;19;20198;-75
2023/04/03 00:54:02;;;;;;;1.90;1.60;;;7.90;99.90;;;;;;7387530;19;20490;-74
2023/04/03 00:56:30;;;;;;;2.60;1.53;;;7.80;99.90;;;;;;7385685;19;20130;-75
2023/04/03 00:59:10;;;;;;;3.37;1.93;;;7.80;99.90;;;;;;7387255;19;20134;-75
2023/04/03 01:01:37;;;;;;;1.77;1.53;;;7.90;99.90;;;;;;7384669;19;20130;-75
2023/04/03 01:04:03;;;;;;;2.47;1.67;;;7.90;99.90;;;;;;7388793;19;20137;-74
2023/04/03 01:06:36;;;;;;;4.23;1.80;;;7.90;99.90;;;;;;7384823;19;20214;-74
2023/04/03 01:09:03;;;;;;;2.00;1.80;;;7.90;99.90;;;;;;7384643;19;20607;-73
2023/04/03 01:11:28;;;;;;;2.40;2.20;;;7.90;99.90;;;;;;7385919;19;20160;-75
2023/04/03 01:13:54;;;;;;;3.00;1.80;;;7.90;99.90;;;;;;7387066;19;20681;-75
2023/04/03 01:16:20;;;;;;;2.20;1.60;;;7.90;99.90;;;;;;7387358;19;20150;-76
2023/04/03 01:18:46;;;;;;;2.27;1.57;;;7.90;99.90;;;;;;7384261;19;20497;-75
2023/04/03 01:21:12;;;;;;;2.20;1.60;;;7.80;99.90;;;;;;7386571;19;20127;-75
2023/04/03 01:23:38;;;;;;;1.90;1.43;;;7.90;99.90;;;;;;7387592;19;20123;-74
2023/04/03 01:26:04;;;;;;;4.33;2.00;;;7.90;99.90;;;;;;7373541;19;20158;-73
2023/04/03 01:28:34;;;;;;;2.77;1.60;;;7.80;99.90;;;;;;7389343;19;20138;-75
2023/04/03 01:31:06;;;;;;;2.17;1.70;;;7.90;99.90;;;;;;7384395;19;20158;-74
2023/04/03 01:33:32;;;;;;;4.07;1.80;;;7.70;99.90;;;;;;7386502;19;20622;-74
2023/04/03 01:35:58;;;;;;;1.93;1.73;;;7.60;99.90;;;;;;7386480;19;20131;-74
2023/04/03 01:38:24;;;;;;;2.80;1.60;;;7.60;99.90;;;;;;7385800;19;20222;-74
2023/04/03 01:40:49;;;;;;;3.50;1.53;;;7.70;99.90;;;;;;7385388;19;20155;-75
2023/04/03 01:43:15;;;;;;;2.87;1.53;;;7.70;99.90;;;;;;7385403;19;20198;-75
2023/04/03 01:45:41;;;;;;;2.50;1.60;;;7.60;99.90;;;;;;7383309;19;20139;-75
2023/04/03 01:48:07;;;;;;;2.00;1.60;;;7.60;99.90;;;;;;7385945;19;20150;-75
2023/04/03 01:50:33;;;;;;;1.97;1.60;;;7.60;99.90;;;;;;7385286;19;20608;-75
2023/04/03 01:52:59;;;;;;;2.70;1.80;;;7.70;99.90;;;;;;7384513;19;20157;-74
2023/04/03 01:55:24;;;;;;;2.27;1.60;;;7.60;99.90;;;;;;7383488;19;20141;-75
2023/04/03 01:57:50;;;;;;;1.70;1.60;;;7.60;99.90;;;;;;7389875;19;20143;-74
2023/04/03 02:00:16;;;;;;;1.60;1.50;;;7.60;99.90;;;;;;7391325;19;20579;-75
2023/04/03 02:02:42;;;;;;;2.13;1.60;;;7.60;99.90;;;;;;7387156;19;20154;-75
2023/04/03 02:05:08;;;;;;;2.23;1.67;;;7.70;99.90;;;;;;7390440;19;20142;-74
2023/04/03 02:07:34;;;;;;;2.17;1.67;;;7.60;99.90;;;;;;7391955;19;20151;-75
2023/04/03 02:10:00;;;;;;;1.60;1.50;;;7.60;99.90;;;;;;7393905;19;20513;-74
2023/04/03 02:12:25;;;;;;;2.20;1.40;;;7.60;99.90;;;;;;7389749;19;20159;-75
2023/04/03 02:14:51;;;;;;;2.30;1.63;;;7.60;99.90;;;;;;7385777;19;20150;-75
2023/04/03 02:17:17;;;;;;;2.60;1.80;;;7.60;99.90;;;;;;7391290;19;20181;-74
2023/04/03 02:19:43;;;;;;;2.57;1.70;;;7.60;99.90;;;;;;7390734;19;20211;-75
2023/04/03 02:22:09;;;;;;;2.40;1.80;;;7.70;99.90;;;;;;7389639;19;20159;-74
2023/04/03 02:24:35;;;;;;;3.03;1.60;;;7.60;99.90;;;;;;7392926;19;20157;-74
2023/04/03 02:27:01;;;;;;;2.80;1.53;;;7.50;99.90;;;;;;7392032;19;20872;-74
2023/04/03 02:29:27;;;;;;;3.30;1.97;;;7.60;99.90;;;;;;7391917;19;20161;-74
2023/04/03 02:31:53;;;;;;;3.17;1.63;;;7.60;99.90;;;;;;7391450;19;20138;-76
2023/04/03 02:34:19;;;;;;;2.40;2.00;;;7.70;99.90;;;;;;7390491;19;20155;-74
2023/04/03 02:36:44;;;;;;;1.97;1.50;;;7.70;99.90;;;;;;7390805;19;20966;-73
2023/04/03 02:39:11;;;;;;;2.80;1.80;;;7.50;99.90;;;;;;7391767;19;20178;-74
2023/04/03 02:41:36;;;;;;;2.27;1.80;;;7.30;99.90;;;;;;7388119;19;20147;-75
2023/04/03 02:44:04;;;;;;;2.57;1.87;;;7.50;99.90;;;;;;7392535;19;20166;-75
2023/04/03 02:46:29;;;;;;;2.03;1.37;;;7.50;99.90;;;;;;7390711;19;20765;-74
2023/04/03 02:48:55;;;;;;;2.37;1.60;;;7.60;99.90;;;;;;7393310;19;20138;-74
2023/04/03 02:51:22;;;;;;;2.80;1.70;;;7.50;99.90;;;;;;7390946;19;20228;-74
2023/04/03 02:53:49;;;;;;;2.13;1.40;;;7.50;99.90;;;;;;7389284;19;20165;-74
2023/04/03 02:56:16;;;;;;;2.20;1.70;;;7.60;99.90;;;;;;7390593;19;20544;-74
2023/04/03 02:58:42;;;;;;;2.53;1.63;;;7.60;99.90;;;;;;7391948;19;20170;-74
2023/04/03 03:01:08;;;;;;;3.00;1.53;;;7.10;99.90;;;;;;7389846;19;20150;-74
2023/04/03 03:03:34;;;;;;;3.07;1.60;;;7.30;99.90;;;;;;7390960;19;20222;-74
2023/04/03 03:06:09;;;;;;;1.40;1.30;;;7.30;99.90;;;;;;7389645;19;20146;-73
2023/04/03 03:08:35;;;;;;;1.67;1.37;;;7.50;99.90;;;;;;7392161;19;20166;-73
2023/04/03 03:11:01;;;;;;;2.07;1.60;;;7.60;99.90;;;;;;7390156;19;20615;-74
2023/04/03 03:13:27;;;;;;;1.90;1.70;;;7.60;99.90;;;;;;7391669;19;20142;-74
2023/04/03 03:15:53;;;;;;;2.17;1.60;;;7.60;99.90;;;;;;7389567;19;20142;-74
2023/04/03 03:18:19;;;;;;;2.93;1.60;;;7.70;99.90;;;;;;7388914;19;20192;-73
2023/04/03 03:20:45;;;;;;;4.13;1.90;;;7.60;99.90;;;;;;7388257;19;20142;-74
2023/04/03 03:23:11;;;;;;;2.37;1.90;;;7.70;99.90;;;;;;7386678;19;20143;-74
2023/04/03 03:25:40;;;;;;;2.37;1.60;;;7.70;99.90;;;;;;7392550;19;20610;-75
2023/04/03 03:28:06;;;;;;;2.97;1.90;;;7.00;99.90;;;;;;7390086;19;20339;-74
2023/04/03 03:30:32;;;;;;;3.20;1.60;;;7.20;99.90;;;;;;7389500;19;20150;-74
2023/04/03 03:32:58;;;;;;;1.60;1.50;;;7.40;99.90;;;;;;7391085;19;20142;-74
2023/04/03 03:35:24;;;;;;;3.57;1.90;;;7.50;99.90;;;;;;7388617;19;20976;-74
2023/04/03 03:37:50;;;;;;;2.30;1.70;;;7.50;99.90;;;;;;7390267;19;20230;-75
2023/04/03 03:40:15;;;;;;;2.63;1.60;;;7.50;99.90;;;;;;7382978;19;20193;-74
2023/04/03 03:42:41;;;;;;;2.40;1.70;;;7.50;99.90;;;;;;7383878;19;20142;-73
2023/04/03 03:45:07;;;;;;;2.80;1.37;;;7.10;99.90;;;;;;7391576;19;20588;-74
2023/04/03 03:47:33;;;;;;;3.67;1.63;;;7.20;99.90;;;;;;7388262;19;20154;-74
2023/04/03 03:49:59;;;;;;;3.53;1.83;;;7.40;99.90;;;;;;7388993;19;20147;-74
2023/04/03 03:52:26;;;;;;;2.63;1.90;;;7.50;99.90;;;;;;7385460;19;20147;-73
2023/04/03 03:54:51;;;;;;;3.20;1.63;;;7.60;99.90;;;;;;7387376;19;20139;-74
2023/04/03 03:57:17;;;;;;;1.60;1.40;;;7.50;99.90;;;;;;7387269;19;20656;-74
2023/04/03 03:59:44;;;;;;;3.13;1.80;;;7.60;99.90;;;;;;7390903;19;20133;-74
2023/04/03 04:02:10;;;;;;;4.07;1.57;;;7.60;99.90;;;;;;7386304;19;20525;-75
2023/04/03 04:04:36;;;;;;;4.10;1.50;;;7.40;99.90;;;;;;7384358;19;20142;-74
2023/04/03 04:07:03;;;;;;;2.70;1.47;;;7.50;99.90;;;;;;7388981;19;20426;-73
2023/04/03 04:09:29;;;;;;;1.93;1.27;;;7.40;99.90;;;;;;7389005;19;20134;-73
2023/04/03 04:11:55;;;;;;;1.43;1.23;;;7.40;99.90;;;;;;7387633;19;20146;-74
2023/04/03 04:14:21;;;;;;;2.83;1.47;;;7.50;99.90;;;;;;7389741;19;20149;-73
2023/04/03 04:16:47;;;;;;;1.80;1.40;;;7.60;99.90;;;;;;7387494;19;20248;-74
2023/04/03 04:19:13;;;;;;;2.40;1.40;;;7.60;99.90;;;;;;7388958;19;20153;-74
2023/04/03 04:21:41;;;;;;;2.73;1.47;;;7.70;99.90;;;;;;7385273;19;20164;-74
2023/04/03 04:24:08;;;;;;;1.87;1.50;;;7.70;99.90;;;;;;7388753;19;20244;-73
2023/04/03 04:26:34;;;;;;;1.50;1.40;;;7.70;99.90;;;;;;7387642;19;20498;-74
2023/04/03 04:29:00;;;;;;;2.63;1.50;;;7.70;99.90;;;;;;7389359;19;20138;-74
2023/04/03 04:31:26;;;;;;;1.80;1.50;;;7.70;99.90;;;;;;7385250;19;20154;-74
2023/04/03 04:33:53;;;;;;;2.40;1.87;;;7.80;99.90;;;;;;7386794;19;20613;-74
2023/04/03 04:36:19;;;;;;;3.97;1.97;;;7.70;99.90;;;;;;7388145;19;20247;-74
2023/04/03 04:38:45;;;;;;;2.27;1.80;;;7.80;99.90;;;;;;7386481;19;20234;-74
2023/04/03 04:41:11;;;;;;;3.60;1.50;;;7.80;99.90;;;;;;7388212;19;20238;-74
2023/04/03 04:43:36;;;;;;;3.67;1.57;;;7.70;99.90;;;;;;7386791;19;20223;-74
2023/04/03 04:46:07;;;;;;;1.80;1.57;;;7.60;99.90;;;;;;7385357;19;20257;-75
2023/04/03 04:48:34;;;;;;;2.17;1.60;;;7.70;99.90;;;;;;7389456;19;20146;-74
2023/04/03 04:51:00;;;;;;;3.47;1.60;;;7.60;99.90;;;;;;7385130;19;20151;-74
2023/04/03 04:53:26;;;;;;;3.07;1.63;;;7.70;99.90;;;;;;7386386;19;20158;-75
2023/04/03 04:55:52;;;;;;;1.50;1.40;;;7.70;99.90;;;;;;7385963;19;20163;-74
2023/04/03 04:58:19;;;;;;;3.10;1.63;;;7.70;99.90;;;;;;7389420;19;20154;-75
2023/04/03 05:00:45;;;;;;;2.43;1.37;;;7.70;99.90;;;;;;7386285;19;20559;-75
2023/04/03 05:03:11;;;;;;;3.07;1.50;;;7.70;99.90;;;;;;7384675;19;20143;-75
2023/04/03 05:05:37;;;;;;;3.00;1.60;;;7.70;99.90;;;;;;7386850;19;20139;-74
2023/04/03 05:08:04;;;;;;;2.17;1.47;;;7.70;99.90;;;;;;7385652;19;20643;-75
2023/04/03 05:10:29;;;;;;;4.33;1.80;;;7.70;99.90;;;;;;7386195;19;20139;-75
2023/04/03 05:12:55;;;;;;;1.90;1.53;;;7.70;99.90;;;;;;7382773;19;20146;-76
2023/04/03 05:15:21;;;;;;;2.50;1.40;;;7.70;99.90;;;;;;7385439;19;20141;-75
2023/04/03 05:17:50;;;;;;;3.13;1.70;;;7.80;99.90;;;;;;7383390;19;20178;-76
2023/04/03 05:20:17;;;;;;;3.17;1.70;;;7.80;99.90;;;;;;7384692;19;20154;-76
2023/04/03 05:22:42;;;;;;;1.80;1.37;;;7.80;99.90;;;;;;7383856;19;20158;-75
2023/04/03 05:25:08;;;;;;;1.90;1.40;;;7.80;99.90;;;;;;7385816;19;20456;-76
2023/04/03 05:27:34;;;;;;;2.37;1.40;;;7.70;99.90;;;;;;7386531;19;20151;-76
2023/04/03 05:30:00;;;;;;;2.87;1.40;;;7.60;99.90;;;;;;7387001;19;20575;-76
2023/04/03 05:32:27;;;;;;;1.53;1.20;;;7.60;99.90;;;;;;7388063;19;20142;-76
2023/04/03 05:34:53;;;;;;;3.47;1.20;;;7.50;99.90;;;;;;7394299;19;20134;-77
2023/04/03 05:37:19;;;;;;;5.57;1.50;;;7.50;99.90;;;;;;7392285;19;20209;-78
2023/04/03 05:39:45;;;;;;;2.50;1.67;;;7.50;99.90;;;;;;7390438;19;20494;-75
2023/04/03 05:42:11;;;;;;;1.63;1.53;;;7.60;99.90;;;;;;7390535;19;20196;-79
2023/04/03 05:44:37;;;;;;;3.93;1.93;;;7.70;99.90;;;;;;7386296;19;20130;-79
2023/04/03 05:47:03;;;;;;;1.67;1.33;;;7.70;99.90;;;;;;7392813;19;20139;-78
2023/04/03 05:49:29;;;;;;;3.47;1.60;;;7.70;99.90;;;;;;7393470;19;20663;-79
2023/04/03 05:51:55;;;;;;;4.37;1.70;;;7.70;99.90;;;;;;7393558;19;20137;-78
2023/04/03 05:54:24;;;;;;;1.90;1.23;;;7.70;99.90;;;;;;7394362;19;20163;-77
2023/04/03 05:56:50;;;;;;;2.50;1.50;;;7.60;99.90;;;;;;7393354;19;20162;-79
2023/04/03 05:59:17;;;;;;;4.93;1.90;;;7.60;99.90;;;;;;7392934;19;20146;-78
2023/04/03 06:01:43;;;;;;;2.13;1.40;;;7.60;99.90;;;;;;7392585;19;20155;-79
2023/04/03 06:04:09;;;;;;;2.40;1.47;;;7.60;99.90;;;;;;7393901;19;20218;-78
2023/04/03 06:06:51;;;;;;;1.93;1.53;;;7.60;99.90;;;;;;7395590;19;20131;-78
2023/04/03 06:09:17;;;;;;;2.00;1.70;;;7.50;99.90;;;;;;7394772;19;20184;-78
2023/04/03 06:11:43;;;;;;;1.30;1.20;;;7.50;99.90;;;;;;7392525;19;20154;-78
2023/04/03 06:14:10;;;;;;;2.37;1.57;;;7.50;99.90;;;;;;7393662;19;20143;-78
2023/04/03 06:16:36;;;;;;;2.57;1.50;;;7.50;99.90;;;;;;7392785;19;20615;-79
2023/04/03 06:19:03;;;;;;;2.33;1.77;;;7.50;99.90;;;;;;7393702;19;20455;-79
2023/04/03 06:21:30;;;;;;;3.17;1.70;;;7.50;99.90;;;;;;7392278;19;20138;-79
2023/04/03 06:23:56;;;;;;;2.40;1.50;;;7.50;99.90;;;;;;7392705;19;20171;-78
2023/04/03 06:26:22;;;;;;;4.20;1.40;;;7.40;99.90;;;;;;7392843;19;20145;-79
2023/04/03 06:28:47;;;;;;;2.63;1.60;;;7.50;99.90;;;;;;7392767;19;20222;-77
2023/04/03 06:31:13;;;;;;;4.47;1.77;;;7.60;99.90;;;;;;7392658;19;20228;-78
2023/04/03 06:33:39;;;;;;;4.00;1.73;;;7.60;99.90;;;;;;7392658;19;20131;-77
2023/04/03 06:36:05;;;;;;;4.00;1.60;;;7.50;99.90;;;;;;7394638;19;20619;-77
2023/04/03 06:38:35;;;;;;;2.73;1.87;;;7.50;99.90;;;;;;7394785;19;20131;-78
2023/04/03 06:41:00;;;;;;;2.10;1.60;;;7.50;99.90;;;;;;7386913;19;20178;-78
2023/04/03 06:43:26;;;;;;;3.13;1.37;;;7.30;99.90;;;;;;7387584;19;20224;-79
2023/04/03 06:45:52;;;;;;;3.80;2.20;;;7.50;99.90;;;;;;7391796;19;20137;-80
2023/04/03 06:48:18;;;;;;;2.20;1.80;;;7.50;99.90;;;;;;7392924;19;20146;-82
2023/04/03 06:50:44;;;;;;;2.97;1.73;;;7.50;99.90;;;;;;7390951;19;20145;-80
2023/04/03 06:53:10;;;;;;;3.13;1.47;;;7.40;99.90;;;;;;7389488;19;20620;-80
2023/04/03 06:55:36;;;;;;;2.83;2.10;;;7.50;99.90;;;;;;7390478;19;20147;-80
2023/04/03 06:58:03;;;;;;;2.23;1.40;;;7.60;99.90;;;;;;7394273;19;20143;-80
2023/04/03 07:00:30;;;;;;;3.17;1.27;;;7.60;99.90;;;;;;7389986;19;20172;-78
2023/04/03 07:02:57;;;;;;;2.47;1.50;;;7.40;99.90;;;;;;7390068;19;20150;-79
2023/04/03 07:05:23;;;;;;;2.20;1.50;;;7.40;99.90;;;;;;7389546;19;20134;-78
2023/04/03 07:07:50;;;;;;;1.73;1.57;;;7.50;99.90;;;;;;7389434;19;20149;-78
2023/04/03 07:10:16;;;;;;;4.00;1.63;;;7.50;99.90;;;;;;7387772;19;20150;-75
2023/04/03 07:12:42;;;;;;;2.70;1.73;;;7.50;99.90;;;;;;7390229;19;20139;-76
2023/04/03 07:15:08;;;;;;;2.43;1.60;;;7.60;99.90;;;;;;7390121;19;20462;-75
2023/04/03 07:17:35;;;;;;;2.23;1.73;;;7.60;99.90;;;;;;7390051;19;20138;-75
2023/04/03 07:20:02;;;;;;;3.93;1.50;;;7.70;99.90;;;;;;7391242;19;20603;-76
2023/04/03 07:22:28;;;;;;;3.07;1.73;;;7.60;99.90;;;;;;7387876;19;20151;-76
2023/04/03 07:24:54;;;;;;;3.13;1.60;;;7.70;99.90;;;;;;7390853;19;20355;-75
2023/04/03 07:27:20;;;;;;;2.30;1.80;;;7.80;99.90;;;;;;7390670;19;20721;-76
2023/04/03 07:29:47;;;;;;;3.50;1.50;;;7.70;99.90;;;;;;7389332;19;20159;-76
2023/04/03 07:32:14;;;;;;;2.53;1.80;;;7.80;99.90;;;;;;7389538;19;20481;-76
2023/04/03 07:34:39;;;;;;;8.30;2.10;;;7.80;99.90;;;;;;7389553;19;20147;-75
2023/04/03 07:37:06;;;;;;;3.40;1.40;;;7.70;99.90;;;;;;7390849;19;20582;-76
2023/04/03 07:39:32;;;;;;;2.50;1.50;;;7.90;99.90;;;;;;7389011;19;20150;-79
2023/04/03 07:41:59;;;;;;;2.87;1.80;;;7.90;99.90;;;;;;7386717;19;20157;-78
2023/04/03 07:44:25;;;;;;;1.87;1.50;;;8.00;99.90;;;;;;7391373;19;20707;-79
2023/04/03 07:46:50;;;;;;;3.33;1.63;;;7.90;99.90;;;;;;7390487;19;20312;-79
2023/04/03 07:49:22;;;;;;;3.17;1.37;;;7.90;99.90;;;;;;7388640;19;20217;-78
2023/04/03 07:51:48;;;;;;;2.87;1.90;;;8.00;99.90;;;;;;7396299;19;20138;-79
2023/04/03 07:54:15;;;;;;;2.20;1.50;;;8.20;99.90;;;;;;7389458;19;20139;-78
2023/04/03 07:56:42;;;;;;;4.97;2.10;;;8.10;99.90;;;;;;7388907;19;20138;-78
2023/04/03 07:59:09;;;;;;;2.80;1.73;;;8.00;99.90;;;;;;7388796;19;20158;-77
2023/04/03 08:01:35;;;;;;;2.60;1.60;;;8.10;99.90;;;;;;7387625;19;20150;-77
2023/04/03 08:04:01;;;;;;;2.57;1.63;;;8.10;99.90;;;;;;7389394;19;20534;-79
2023/04/03 08:06:29;;;;;;;4.17;1.80;;;8.20;99.90;;;;;;7386242;19;20162;-77
2023/04/03 08:08:54;;;;;;;3.63;1.50;;;8.20;99.90;;;;;;7387545;19;20512;-77
2023/04/03 08:11:21;;;;;;;2.20;1.60;;;8.20;99.90;;;;;;7388715;19;20154;-78
2023/04/03 08:13:46;;;;;;;3.50;1.57;;;8.20;99.90;;;;;;7401683;19;20146;-76
2023/04/03 08:16:20;;;;;;;4.50;1.77;;;8.20;99.90;;;;;;7389781;19;20147;-78
2023/04/03 08:18:46;;;;;;;2.13;1.80;;;8.30;99.90;;;;;;7389028;19;20138;-79
2023/04/03 08:21:13;;;;;;;3.63;1.70;;;8.30;99.90;;;;;;7387339;19;20130;-78
2023/04/03 08:23:41;;;;;;;2.57;2.13;;;8.20;99.90;;;;;;7388503;19;20173;-78
2023/04/03 08:26:09;;;;;;;2.33;1.27;;;8.20;99.90;;;;;;7388838;19;20507;-77
2023/04/03 08:28:35;;;;;;;7.97;2.97;;;8.20;99.90;;;;;;7389170;19;20141;-77
2023/04/03 08:31:06;;;;;;;2.10;1.50;;;8.20;99.90;;;;;;7388105;19;20210;-78
2023/04/03 08:33:33;;;;;;;2.77;1.63;;;8.20;99.90;;;;;;7388216;19;20493;-78
2023/04/03 08:35:59;;;;;;;2.03;1.50;;;8.20;99.90;;;;;;7388999;19;20627;-79
2023/04/03 08:38:25;;;;;;;3.77;1.80;;;8.30;99.90;;;;;;7388133;19;20147;-78
2023/04/03 08:41:10;;;;;;;3.63;1.90;;;8.20;99.90;;;;;;7386439;19;20178;-78
2023/04/03 08:43:55;;;;;;;3.47;1.73;;;8.20;99.90;;;;;;7386634;19;20639;-79
2023/04/03 08:46:26;;;;;;;1.60;1.50;;;8.30;99.90;;;;;;7388361;19;20150;-79
2023/04/03 08:48:53;;;;;;;3.27;1.80;;;8.30;99.90;;;;;;7387569;19;20162;-76
2023/04/03 08:51:21;;;;;;;2.70;1.50;;;8.30;99.90;;;;;;7384743;19;20138;-77
2023/04/03 08:54:00;;;;;;;3.07;1.70;;;8.20;99.90;;;;;;7388479;19;20466;-78
2023/04/03 08:56:26;;;;;;;4.30;2.07;;;8.30;99.90;;;;;;7389261;19;20146;-78
2023/04/03 08:59:04;;;;;;;3.80;1.53;;;8.30;99.90;;;;;;7389535;19;20142;-79
2023/04/03 09:01:40;;;;;;;1.57;1.33;;;8.30;99.90;;;;;;7388579;19;20146;-77
2023/04/03 09:04:15;;;;;;;2.53;1.50;;;8.30;99.90;;;;;;7388413;19;20911;-77
2023/04/03 09:06:46;;;;;;;3.33;1.90;;;8.30;99.90;;;;;;7388664;19;20146;-78
2023/04/03 09:09:14;;;;;;;3.40;1.83;;;8.10;99.90;;;;;;7385387;19;20142;-78
2023/04/03 09:12:19;;;;;;;5.30;1.50;;;8.20;99.90;;;;;;7379314;19;20134;-78
2023/04/03 09:15:13;;;;;;;1.83;1.40;;;8.30;99.90;;;;;;7382150;19;20154;-77
2023/04/03 09:17:44;;;;;;;3.47;1.97;;;8.50;99.90;;;;;;7383582;19;20814;-77
2023/04/03 09:20:38;;;;;;;4.83;2.23;;;8.70;99.90;;;;;;7379896;19;20146;-76
2023/04/03 09:23:19;;;;;;;4.47;2.10;;;8.70;99.90;;;;;;7383548;19;20150;-77
2023/04/03 09:25:45;;;;;;;3.10;2.07;;;8.80;99.90;;;;;;7386018;19;20170;-77
2023/04/03 09:28:11;;;;;;;2.73;2.03;;;8.70;99.90;;;;;;7390642;19;20158;-76
2023/04/03 09:30:38;;;;;;;4.17;1.90;;;8.70;99.90;;;;;;7387249;19;20153;-76
2023/04/03 09:33:05;;;;;;;3.40;2.20;;;8.50;99.90;;;;;;7386568;19;20142;-75
2023/04/03 09:35:34;;;;;;;2.70;1.70;;;8.70;99.90;;;;;;7386054;19;20150;-76
2023/04/03 09:38:10;;;;;;;4.23;2.10;;;8.70;99.90;;;;;;7385308;19;20160;-77
2023/04/03 09:40:39;;;;;;;6.23;2.40;;;8.50;99.90;;;;;;7386996;19;20146;-76
2023/04/03 09:43:30;;;;;;;3.40;2.10;;;8.50;99.90;;;;;;7383946;19;20142;-76
2023/04/03 09:46:17;;;;;;;6.17;2.00;;;8.60;99.90;;;;;;7385001;19;20135;-76
2023/04/03 09:49:12;;;;;;;2.40;1.30;;;8.60;99.90;;;;;;7385956;19;20626;-74
2023/04/03 09:51:38;;;;;;;1.57;1.37;;;8.70;99.90;;;;;;7382091;19;20238;-75
2023/04/03 09:54:26;;;;;;;2.50;1.63;;;8.60;99.90;;;;;;7385292;19;20142;-75
2023/04/03 09:56:55;;;;;;;3.47;1.30;;;8.50;99.90;;;;;;7386779;19;20159;-75
2023/04/03 09:59:21;;;;;;;3.33;1.57;;;8.60;99.90;;;;;;7384685;19;20143;-76
2023/04/03 10:02:18;;;;;;;2.77;1.33;;;8.60;99.90;;;;;;7383797;19;20156;-75
2023/04/03 10:04:44;;;;;;;2.13;1.43;;;8.60;99.90;;;;;;7386697;19;20269;-75
2023/04/03 10:07:35;;;;;;;3.53;1.70;;;8.70;99.90;;;;;;7385429;19;20166;-76
2023/04/03 10:10:20;;;;;;;2.77;1.40;;;8.80;99.90;;;;;;7383261;19;20165;-77
2023/04/03 10:12:46;;;;;;;1.80;1.40;;;8.70;99.90;;;;;;7385715;19;20638;-77
2023/04/03 10:15:18;;;;;;;3.87;1.70;;;8.60;99.90;;;;;;7384559;19;20176;-76
2023/04/03 10:17:51;;;;;;;4.00;1.90;;;8.60;99.90;;;;;;7384955;19;20150;-75
2023/04/03 10:20:31;;;;;;;3.17;1.90;;;8.60;99.90;;;;;;7399392;19;20489;-78
2023/04/03 10:23:37;;;;;;;4.23;1.63;;;8.70;99.90;;;;;;7390734;19;20145;-77
2023/04/03 10:26:32;;;;;;;3.33;2.00;;;8.90;99.90;;;;;;7399454;19;20652;-75
2023/04/03 10:29:26;;;;;;;2.33;1.50;;;8.90;99.90;;;;;;7388990;19;20138;-76
2023/04/03 10:32:12;;;;;;;2.53;1.43;;;8.70;99.90;;;;;;7388487;19;20139;-76
2023/04/03 10:34:44;;;;;;;4.77;1.60;;;8.60;99.90;;;;;;7390649;19;20535;-75
2023/04/03 10:37:36;;;;;;;2.73;1.37;;;8.50;99.90;;;;;;7390229;19;21025;-75
2023/04/03 10:40:41;;;;;;;3.10;1.63;;;8.40;99.90;;;;;;7388804;19;20591;-77
2023/04/03 10:43:41;;;;;;;3.90;1.53;;;8.50;99.90;;;;;;7388753;19;20484;-74
2023/04/03 10:46:10;;;;;;;2.60;1.50;;;8.70;99.90;;;;;;7395789;19;20456;-74
2023/04/03 10:48:54;;;;;;;2.70;1.60;;;8.70;99.90;;;;;;7392186;19;20162;-75
2023/04/03 10:51:46;;;;;;;4.00;1.80;;;8.90;99.90;;;;;;7392401;19;20156;-74
2023/04/03 10:54:28;;;;;;;2.20;1.20;;;9.00;99.90;;;;;;7391013;19;20151;-78
2023/04/03 10:57:07;;;;;;;4.77;1.37;;;9.00;99.90;;;;;;7392168;19;20184;-76
2023/04/03 10:59:44;;;;;;;3.07;1.30;;;9.00;99.90;;;;;;7391593;19;20636;-76
2023/04/03 11:02:31;;;;;;;1.87;1.40;;;9.00;99.90;;;;;;7389411;19;20142;-75
2023/04/03 11:05:03;;;;;;;1.93;1.40;;;8.90;99.90;;;;;;7388374;19;20163;-75
2023/04/03 11:07:48;;;;;;;1.87;1.27;;;8.90;99.90;;;;;;7390224;19;20228;-75
2023/04/03 11:10:24;;;;;;;2.63;1.40;;;9.00;99.90;;;;;;7387743;19;20134;-75
2023/04/03 11:13:03;;;;;;;2.20;1.20;;;9.00;99.90;;;;;;7390642;19;20146;-74
2023/04/03 11:15:33;;;;;;;2.07;1.77;;;9.10;99.90;;;;;;7389893;19;20146;-76
2023/04/03 11:18:06;;;;;;;2.63;1.67;;;9.20;99.90;;;;;;7388985;19;20142;-75
2023/04/03 11:20:34;;;;;;;5.63;1.53;;;9.10;99.90;;;;;;7391589;19;20131;-76
2023/04/03 11:23:31;;;;;;;4.50;1.50;;;9.00;99.90;;;;;;7389659;19;20145;-76
2023/04/03 11:26:13;;;;;;;1.90;1.20;;;9.10;99.90;;;;;;7388033;19;20155;-75
2023/04/03 11:28:39;;;;;;;2.20;1.30;;;9.40;99.90;;;;;;7390674;19;20135;-78
2023/04/03 11:31:45;;;;;;;1.80;1.10;;;9.50;99.90;;;;;;7385743;19;20142;-76
2023/04/03 11:34:39;;;;;;;2.23;1.50;;;9.20;99.90;;;;;;7390992;19;20130;-76
2023/04/03 11:37:30;;;;;;;3.20;1.70;;;9.00;99.90;;;;;;7391615;19;20293;-76
2023/04/03 11:40:03;;;;;;;2.33;1.40;;;9.10;99.90;;;;;;7388178;19;20492;-77
2023/04/03 11:42:49;;;;;;;2.50;1.40;;;9.10;99.90;;;;;;7387569;19;20142;-76
2023/04/03 11:45:26;;;;;;;2.53;1.30;;;9.10;99.90;;;;;;7389866;19;20146;-77
2023/04/03 11:47:58;;;;;;;3.73;1.30;;;9.10;99.90;;;;;;7388305;19;20146;-76
2023/04/03 11:50:43;;;;;;;1.97;1.00;;;9.00;99.90;;;;;;7390500;19;20161;-75
2023/04/03 11:53:12;;;;;;;4.73;1.97;;;9.00;99.90;;;;;;7390262;19;20174;-77
2023/04/03 11:55:50;;;;;;;2.43;1.30;;;9.10;99.90;;;;;;7388650;19;20139;-76
2023/04/03 11:58:21;;;;;;;3.70;1.10;;;9.20;99.90;;;;;;7389048;19;20142;-76
2023/04/03 12:01:00;;;;;;;1.97;1.30;;;9.30;99.90;;;;;;7388611;19;20137;-78
2023/04/03 12:03:29;;;;;;;4.83;1.43;;;9.30;99.90;;;;;;7385275;19;20710;-76
2023/04/03 12:05:55;;;;;;;1.30;1.00;;;9.20;99.90;;;;;;7388453;19;20616;-76
2023/04/03 12:08:29;;;;;;;2.10;1.33;;;9.10;99.90;;;;;;7388263;19;20131;-76
2023/04/03 12:11:25;;;;;;;4.37;1.50;;;9.10;99.90;;;;;;7388160;19;20165;-77
2023/04/03 12:13:56;;;;;;;2.50;1.40;;;9.10;99.90;;;;;;7386167;19;20150;-77
2023/04/03 12:16:37;;;;;;;4.60;1.30;;;8.90;99.90;;;;;;7387856;19;20825;-75
2023/04/03 12:19:18;;;;;;;4.33;1.80;;;8.80;99.90;;;;;;7387495;19;20154;-77
2023/04/03 12:21:45;;;;;;;1.83;1.20;;;8.80;99.90;;;;;;7386281;19;20138;-77
2023/04/03 12:24:16;;;;;;;3.93;1.57;;;8.80;99.90;;;;;;7387823;19;20226;-76
2023/04/03 12:27:01;;;;;;;3.13;1.27;;;8.90;99.90;;;;;;7385338;19;20142;-74
2023/04/03 12:29:38;;;;;;;2.63;1.33;;;9.00;99.90;;;;;;7388058;19;20152;-75
2023/04/03 12:32:28;;;;;;;1.40;1.13;;;9.20;99.90;;;;;;7386649;19;20131;-75
2023/04/03 12:35:19;;;;;;;4.00;1.63;;;9.20;99.90;;;;;;7388220;19;20141;-77
2023/04/03 12:38:13;;;;;;;2.30;1.40;;;9.30;99.90;;;;;;7385349;19;20180;-78
2023/04/03 12:40:42;;;;;;;5.20;1.90;;;9.30;99.90;;;;;;7383671;19;20193;-78
2023/04/03 12:43:20;;;;;;;4.10;1.30;;;9.30;99.90;;;;;;7387170;19;20131;-77
2023/04/03 12:46:08;;;;;;;2.90;1.10;;;9.30;99.90;;;;;;7387283;19;20149;-77
2023/04/03 12:48:51;;;;;;;2.53;1.50;;;9.30;99.90;;;;;;7387308;19;20150;-77
2023/04/03 12:51:40;;;;;;;2.27;1.30;;;9.20;99.90;;;;;;7385907;19;20142;-76
2023/04/03 12:54:37;;;;;;;2.17;1.50;;;9.20;99.90;;;;;;7386380;19;20146;-76
2023/04/03 12:57:15;;;;;;;2.97;1.20;;;9.30;99.90;;;;;;7385890;19;20231;-76
2023/04/03 12:59:43;;;;;;;2.87;1.50;;;9.30;99.90;;;;;;7385886;19;20138;-76
2023/04/03 13:02:28;;;;;;;2.80;1.30;;;9.50;99.90;;;;;;7385132;19;20131;-76
2023/04/03 13:04:57;;;;;;;1.60;1.27;;;9.50;99.90;;;;;;7387589;19;20150;-77
2023/04/03 13:07:37;;;;;;;2.87;1.37;;;9.60;99.90;;;;;;7387769;19;20146;-77
2023/04/03 13:10:05;;;;;;;1.47;1.10;;;9.70;99.90;;;;;;7384346;19;20130;-77
2023/04/03 13:12:31;;;;;;;4.63;1.40;;;9.70;99.90;;;;;;7385141;19;20640;-76
2023/04/03 13:15:01;;;;;;;3.33;1.40;;;9.70;99.90;;;;;;7385594;19;20130;-76